Rancho Palos Verdes, California
Current Conditions -  °F | °C
As of 7:50 PM on Friday 19 Dec 2014 (Local Time) from KTOA Reporting Station
Scattered Clouds Scattered Clouds  
Wind Chill: 61°   Ceiling: Unl
Heat Index: 61°   Visibility: 20mi
Dew Point: 54°   Wind: 9mph
Humidity: 77%   Direction: 260°W
Pressure: 30.17"   Gusts: NA
Location:  33.75°N, 118.4°W
Report Text: KTOA 200350Z 26008KT 20SM SCT200 16/12 A3017 RMK LAST
Loading
Personal Weather Stations






























Interactive Weather Map New forecast layout! Learn more

10-Day Weather Forecast

Advertisements
Track Severe Weather on mobile